sensor_id;sensor_type;location;lat;lon;timestamp;P1;durP1;ratioP1;P2;durP2;ratioP2
18818;SDS011;9537;45.594;9.294;2023-07-02T00:00:48;6.97;;;5.72;;
18818;SDS011;9537;45.594;9.294;2023-07-02T00:01:51;9.25;;;5.93;;
18818;SDS011;9537;45.594;9.294;2023-07-02T00:02:53;8.25;;;6.50;;
18818;SDS011;9537;45.594;9.294;2023-07-02T00:03:53;9.57;;;6.50;;
18818;SDS011;9537;45.594;9.294;2023-07-02T00:04:55;6.85;;;6.10;;
18818;SDS011;9537;45.594;9.294;2023-07-02T00:05:56;7.30;;;6.32;;
18818;SDS011;9537;45.594;9.294;2023-07-02T00:06:58;7.30;;;6.32;;
18818;SDS011;9537;45.594;9.294;2023-07-02T00:08:00;8.60;;;6.80;;
18818;SDS011;9537;45.594;9.294;2023-07-02T00:09:05;11.88;;;8.18;;
18818;SDS011;9537;45.594;9.294;2023-07-02T00:10:05;9.30;;;6.82;;
18818;SDS011;9537;45.594;9.294;2023-07-02T00:11:10;9.13;;;6.70;;
18818;SDS011;9537;45.594;9.294;2023-07-02T00:12:12;8.88;;;6.43;;
18818;SDS011;9537;45.594;9.294;2023-07-02T00:13:14;8.88;;;6.47;;
18818;SDS011;9537;45.594;9.294;2023-07-02T00:14:15;10.77;;;6.53;;
18818;SDS011;9537;45.594;9.294;2023-07-02T00:15:20;7.75;;;6.38;;
18818;SDS011;9537;45.594;9.294;2023-07-02T00:16:21;9.55;;;7.30;;
18818;SDS011;9537;45.594;9.294;2023-07-02T00:17:22;9.35;;;6.93;;
18818;SDS011;9537;45.594;9.294;2023-07-02T00:18:23;8.40;;;6.57;;
18818;SDS011;9537;45.594;9.294;2023-07-02T00:19:33;6.97;;;6.28;;
18818;SDS011;9537;45.594;9.294;2023-07-02T00:20:34;8.75;;;6.60;;
18818;SDS011;9537;45.594;9.294;2023-07-02T00:21:38;8.23;;;6.05;;
18818;SDS011;9537;45.594;9.294;2023-07-02T00:22:40;8.50;;;6.93;;
18818;SDS011;9537;45.594;9.294;2023-07-02T00:23:46;8.02;;;6.25;;
18818;SDS011;9537;45.594;9.294;2023-07-02T00:24:46;8.23;;;7.22;;
18818;SDS011;9537;45.594;9.294;2023-07-02T00:25:50;8.57;;;6.97;;
18818;SDS011;9537;45.594;9.294;2023-07-02T00:26:51;8.90;;;7.40;;
18818;SDS011;9537;45.594;9.294;2023-07-02T00:27:53;9.02;;;6.82;;
18818;SDS011;9537;45.594;9.294;2023-07-02T00:28:54;8.07;;;6.47;;
18818;SDS011;9537;45.594;9.294;2023-07-02T00:29:56;9.07;;;6.60;;
18818;SDS011;9537;45.594;9.294;2023-07-02T00:30:57;6.95;;;6.25;;
18818;SDS011;9537;45.594;9.294;2023-07-02T00:31:59;9.13;;;6.90;;
18818;SDS011;9537;45.594;9.294;2023-07-02T00:33:00;7.18;;;6.35;;
18818;SDS011;9537;45.594;9.294;2023-07-02T00:34:02;9.00;;;6.15;;
18818;SDS011;9537;45.594;9.294;2023-07-02T00:35:04;9.10;;;6.85;;
18818;SDS011;9537;45.594;9.294;2023-07-02T00:36:06;8.85;;;6.75;;
18818;SDS011;9537;45.594;9.294;2023-07-02T00:37:07;8.88;;;7.10;;
18818;SDS011;9537;45.594;9.294;2023-07-02T00:38:09;8.02;;;6.72;;
18818;SDS011;9537;45.594;9.294;2023-07-02T00:39:11;10.00;;;7.00;;
18818;SDS011;9537;45.594;9.294;2023-07-02T00:40:13;7.80;;;6.80;;
18818;SDS011;9537;45.594;9.294;2023-07-02T00:41:13;9.95;;;6.63;;
18818;SDS011;9537;45.594;9.294;2023-07-02T00:42:15;9.10;;;6.93;;
18818;SDS011;9537;45.594;9.294;2023-07-02T00:43:16;8.95;;;6.00;;
18818;SDS011;9537;45.594;9.294;2023-07-02T00:44:18;8.85;;;6.75;;
18818;SDS011;9537;45.594;9.294;2023-07-02T00:45:19;8.00;;;6.85;;
18818;SDS011;9537;45.594;9.294;2023-07-02T00:46:21;8.50;;;7.38;;
18818;SDS011;9537;45.594;9.294;2023-07-02T00:47:25;9.15;;;7.78;;
18818;SDS011;9537;45.594;9.294;2023-07-02T00:48:27;9.52;;;7.68;;
18818;SDS011;9537;45.594;9.294;2023-07-02T00:49:28;9.15;;;7.28;;
18818;SDS011;9537;45.594;9.294;2023-07-02T00:50:30;10.80;;;7.60;;
18818;SDS011;9537;45.594;9.294;2023-07-02T00:51:30;9.95;;;8.02;;
18818;SDS011;9537;45.594;9.294;2023-07-02T00:52:32;10.30;;;7.03;;
18818;SDS011;9537;45.594;9.294;2023-07-02T00:53:33;10.00;;;7.20;;
18818;SDS011;9537;45.594;9.294;2023-07-02T00:54:35;7.53;;;6.80;;
18818;SDS011;9537;45.594;9.294;2023-07-02T00:55:37;9.10;;;7.53;;
18818;SDS011;9537;45.594;9.294;2023-07-02T00:56:38;9.60;;;7.50;;
18818;SDS011;9537;45.594;9.294;2023-07-02T00:57:40;7.95;;;7.13;;
18818;SDS011;9537;45.594;9.294;2023-07-02T00:58:41;8.05;;;7.25;;
18818;SDS011;9537;45.594;9.294;2023-07-02T00:59:46;9.43;;;6.68;;
18818;SDS011;9537;45.594;9.294;2023-07-02T01:00:47;11.30;;;7.50;;
18818;SDS011;9537;45.594;9.294;2023-07-02T01:01:49;8.82;;;7.10;;
18818;SDS011;9537;45.594;9.294;2023-07-02T01:02:53;8.63;;;7.10;;
18818;SDS011;9537;45.594;9.294;2023-07-02T01:03:57;9.32;;;7.05;;
18818;SDS011;9537;45.594;9.294;2023-07-02T01:04:59;9.50;;;7.53;;
18818;SDS011;9537;45.594;9.294;2023-07-02T01:06:02;8.77;;;6.97;;
18818;SDS011;9537;45.594;9.294;2023-07-02T01:07:03;9.07;;;6.80;;
18818;SDS011;9537;45.594;9.294;2023-07-02T01:08:09;10.20;;;7.25;;
18818;SDS011;9537;45.594;9.294;2023-07-02T01:09:12;7.85;;;7.05;;
18818;SDS011;9537;45.594;9.294;2023-07-02T01:10:15;10.13;;;7.25;;
18818;SDS011;9537;45.594;9.294;2023-07-02T01:11:15;9.85;;;7.03;;
18818;SDS011;9537;45.594;9.294;2023-07-02T01:12:17;9.07;;;6.88;;
18818;SDS011;9537;45.594;9.294;2023-07-02T01:13:21;12.20;;;7.75;;
18818;SDS011;9537;45.594;9.294;2023-07-02T01:14:26;7.68;;;6.63;;
18818;SDS011;9537;45.594;9.294;2023-07-02T01:15:29;7.25;;;6.22;;
18818;SDS011;9537;45.594;9.294;2023-07-02T01:16:32;8.23;;;7.18;;
18818;SDS011;9537;45.594;9.294;2023-07-02T01:17:35;8.88;;;6.63;;
18818;SDS011;9537;45.594;9.294;2023-07-02T01:18:41;8.10;;;7.07;;
18818;SDS011;9537;45.594;9.294;2023-07-02T01:19:45;7.22;;;6.32;;
18818;SDS011;9537;45.594;9.294;2023-07-02T01:20:51;9.55;;;7.03;;
18818;SDS011;9537;45.594;9.294;2023-07-02T01:21:53;8.38;;;6.85;;
18818;SDS011;9537;45.594;9.294;2023-07-02T01:22:55;8.15;;;7.32;;
18818;SDS011;9537;45.594;9.294;2023-07-02T01:23:57;12.65;;;7.30;;
18818;SDS011;9537;45.594;9.294;2023-07-02T01:25:00;9.27;;;7.47;;
18818;SDS011;9537;45.594;9.294;2023-07-02T01:26:01;8.05;;;6.95;;
18818;SDS011;9537;45.594;9.294;2023-07-02T01:27:03;7.72;;;6.47;;
18818;SDS011;9537;45.594;9.294;2023-07-02T01:28:04;6.95;;;6.07;;
18818;SDS011;9537;45.594;9.294;2023-07-02T01:29:13;8.10;;;6.65;;
18818;SDS011;9537;45.594;9.294;2023-07-02T01:30:15;9.90;;;7.05;;
18818;SDS011;9537;45.594;9.294;2023-07-02T01:31:16;10.32;;;7.00;;
18818;SDS011;9537;45.594;9.294;2023-07-02T01:32:19;10.75;;;7.35;;
18818;SDS011;9537;45.594;9.294;2023-07-02T01:33:21;7.10;;;6.40;;
18818;SDS011;9537;45.594;9.294;2023-07-02T01:34:22;8.55;;;6.63;;
18818;SDS011;9537;45.594;9.294;2023-07-02T01:35:25;9.10;;;7.10;;
18818;SDS011;9537;45.594;9.294;2023-07-02T01:36:26;7.75;;;6.55;;
18818;SDS011;9537;45.594;9.294;2023-07-02T01:37:28;9.90;;;6.70;;
18818;SDS011;9537;45.594;9.294;2023-07-02T01:38:28;9.35;;;6.80;;
18818;SDS011;9537;45.594;9.294;2023-07-02T01:39:30;9.15;;;7.28;;
18818;SDS011;9537;45.594;9.294;2023-07-02T01:40:31;7.15;;;6.40;;
18818;SDS011;9537;45.594;9.294;2023-07-02T01:41:36;9.15;;;6.22;;
18818;SDS011;9537;45.594;9.294;2023-07-02T01:42:45;7.93;;;7.10;;
18818;SDS011;9537;45.594;9.294;2023-07-02T01:43:46;8.50;;;7.18;;
18818;SDS011;9537;45.594;9.294;2023-07-02T01:44:47;11.23;;;7.10;;
18818;SDS011;9537;45.594;9.294;2023-07-02T01:45:51;8.30;;;7.07;;
18818;SDS011;9537;45.594;9.294;2023-07-02T01:46:52;7.82;;;6.40;;
18818;SDS011;9537;45.594;9.294;2023-07-02T01:47:57;9.02;;;7.18;;
18818;SDS011;9537;45.594;9.294;2023-07-02T01:48:57;9.23;;;6.80;;
18818;SDS011;9537;45.594;9.294;2023-07-02T01:49:59;8.13;;;6.72;;
18818;SDS011;9537;45.594;9.294;2023-07-02T01:51:01;11.00;;;7.03;;
18818;SDS011;9537;45.594;9.294;2023-07-02T01:52:03;7.75;;;6.90;;
18818;SDS011;9537;45.594;9.294;2023-07-02T01:53:05;8.40;;;6.72;;
18818;SDS011;9537;45.594;9.294;2023-07-02T01:54:07;9.73;;;7.18;;
18818;SDS011;9537;45.594;9.294;2023-07-02T01:55:08;9.32;;;7.25;;
18818;SDS011;9537;45.594;9.294;2023-07-02T01:56:10;7.03;;;6.30;;
18818;SDS011;9537;45.594;9.294;2023-07-02T01:57:11;9.40;;;6.47;;
18818;SDS011;9537;45.594;9.294;2023-07-02T01:58:12;8.48;;;6.68;;
18818;SDS011;9537;45.594;9.294;2023-07-02T01:59:14;10.43;;;7.05;;
18818;SDS011;9537;45.594;9.294;2023-07-02T02:00:17;8.50;;;7.07;;
18818;SDS011;9537;45.594;9.294;2023-07-02T02:01:18;7.85;;;6.95;;
18818;SDS011;9537;45.594;9.294;2023-07-02T02:02:19;8.73;;;7.40;;
18818;SDS011;9537;45.594;9.294;2023-07-02T02:03:21;15.02;;;7.90;;
18818;SDS011;9537;45.594;9.294;2023-07-02T02:04:23;10.32;;;7.15;;
18818;SDS011;9537;45.594;9.294;2023-07-02T02:05:24;9.00;;;7.40;;
18818;SDS011;9537;45.594;9.294;2023-07-02T02:06:27;10.02;;;7.20;;
18818;SDS011;9537;45.594;9.294;2023-07-02T02:07:27;8.27;;;7.03;;
18818;SDS011;9537;45.594;9.294;2023-07-02T02:08:29;10.05;;;7.18;;
18818;SDS011;9537;45.594;9.294;2023-07-02T02:09:30;9.20;;;7.35;;
18818;SDS011;9537;45.594;9.294;2023-07-02T02:10:32;9.40;;;7.63;;
18818;SDS011;9537;45.594;9.294;2023-07-02T02:11:33;9.70;;;8.13;;
18818;SDS011;9537;45.594;9.294;2023-07-02T02:12:36;10.38;;;7.78;;
18818;SDS011;9537;45.594;9.294;2023-07-02T02:13:36;7.93;;;7.13;;
18818;SDS011;9537;45.594;9.294;2023-07-02T02:14:38;10.10;;;7.07;;
18818;SDS011;9537;45.594;9.294;2023-07-02T02:15:39;8.43;;;7.53;;
18818;SDS011;9537;45.594;9.294;2023-07-02T02:16:42;10.75;;;7.95;;
18818;SDS011;9537;45.594;9.294;2023-07-02T02:17:45;9.05;;;7.22;;
18818;SDS011;9537;45.594;9.294;2023-07-02T02:18:47;10.23;;;8.15;;
18818;SDS011;9537;45.594;9.294;2023-07-02T02:19:47;8.80;;;7.13;;
18818;SDS011;9537;45.594;9.294;2023-07-02T02:20:49;10.20;;;8.15;;
18818;SDS011;9537;45.594;9.294;2023-07-02T02:21:51;7.75;;;6.93;;
18818;SDS011;9537;45.594;9.294;2023-07-02T02:22:53;9.73;;;8.55;;
18818;SDS011;9537;45.594;9.294;2023-07-02T02:23:54;8.82;;;7.10;;
18818;SDS011;9537;45.594;9.294;2023-07-02T02:24:56;8.98;;;7.90;;
18818;SDS011;9537;45.594;9.294;2023-07-02T02:25:56;8.70;;;7.80;;
18818;SDS011;9537;45.594;9.294;2023-07-02T02:26:58;10.35;;;7.60;;
18818;SDS011;9537;45.594;9.294;2023-07-02T02:27:59;10.60;;;7.75;;
18818;SDS011;9537;45.594;9.294;2023-07-02T02:29:01;10.10;;;8.32;;
18818;SDS011;9537;45.594;9.294;2023-07-02T02:30:02;10.38;;;8.10;;
18818;SDS011;9537;45.594;9.294;2023-07-02T02:31:04;13.23;;;8.10;;
18818;SDS011;9537;45.594;9.294;2023-07-02T02:32:05;9.57;;;7.78;;
18818;SDS011;9537;45.594;9.294;2023-07-02T02:33:08;10.40;;;7.45;;
18818;SDS011;9537;45.594;9.294;2023-07-02T02:34:08;8.80;;;7.35;;
18818;SDS011;9537;45.594;9.294;2023-07-02T02:35:10;8.45;;;6.47;;
18818;SDS011;9537;45.594;9.294;2023-07-02T02:36:11;7.43;;;6.53;;
18818;SDS011;9537;45.594;9.294;2023-07-02T02:37:14;10.32;;;7.38;;
18818;SDS011;9537;45.594;9.294;2023-07-02T02:38:15;8.10;;;7.30;;
18818;SDS011;9537;45.594;9.294;2023-07-02T02:39:16;10.20;;;7.22;;
18818;SDS011;9537;45.594;9.294;2023-07-02T02:40:17;8.68;;;7.55;;
18818;SDS011;9537;45.594;9.294;2023-07-02T02:41:19;11.10;;;7.82;;
18818;SDS011;9537;45.594;9.294;2023-07-02T02:42:20;10.25;;;7.30;;
18818;SDS011;9537;45.594;9.294;2023-07-02T02:43:21;9.10;;;7.00;;
18818;SDS011;9537;45.594;9.294;2023-07-02T02:44:22;8.43;;;7.10;;
18818;SDS011;9537;45.594;9.294;2023-07-02T02:45:24;11.23;;;8.10;;
18818;SDS011;9537;45.594;9.294;2023-07-02T02:46:25;9.73;;;7.80;;
18818;SDS011;9537;45.594;9.294;2023-07-02T02:47:26;13.63;;;8.65;;
18818;SDS011;9537;45.594;9.294;2023-07-02T02:48:27;10.68;;;9.10;;
18818;SDS011;9537;45.594;9.294;2023-07-02T02:49:29;11.57;;;8.52;;
18818;SDS011;9537;45.594;9.294;2023-07-02T02:50:30;11.60;;;8.90;;
18818;SDS011;9537;45.594;9.294;2023-07-02T02:51:31;10.32;;;8.65;;
18818;SDS011;9537;45.594;9.294;2023-07-02T02:52:33;10.05;;;8.45;;
18818;SDS011;9537;45.594;9.294;2023-07-02T02:53:35;9.40;;;7.85;;
18818;SDS011;9537;45.594;9.294;2023-07-02T02:54:36;8.93;;;8.02;;
18818;SDS011;9537;45.594;9.294;2023-07-02T02:55:38;11.68;;;8.82;;
18818;SDS011;9537;45.594;9.294;2023-07-02T02:56:38;10.80;;;8.18;;
18818;SDS011;9537;45.594;9.294;2023-07-02T02:57:40;11.18;;;7.90;;
18818;SDS011;9537;45.594;9.294;2023-07-02T02:58:41;12.45;;;8.63;;
18818;SDS011;9537;45.594;9.294;2023-07-02T02:59:42;9.77;;;8.05;;
18818;SDS011;9537;45.594;9.294;2023-07-02T03:00:43;11.45;;;8.02;;
18818;SDS011;9537;45.594;9.294;2023-07-02T03:01:48;9.07;;;7.97;;
18818;SDS011;9537;45.594;9.294;2023-07-02T03:02:51;9.45;;;7.65;;
18818;SDS011;9537;45.594;9.294;2023-07-02T03:03:53;11.50;;;8.10;;
18818;SDS011;9537;45.594;9.294;2023-07-02T03:04:53;8.77;;;7.72;;
18818;SDS011;9537;45.594;9.294;2023-07-02T03:05:57;10.32;;;7.93;;
18818;SDS011;9537;45.594;9.294;2023-07-02T03:06:57;8.30;;;7.32;;
18818;SDS011;9537;45.594;9.294;2023-07-02T03:08:00;9.90;;;7.93;;
18818;SDS011;9537;45.594;9.294;2023-07-02T03:09:01;12.13;;;7.57;;
18818;SDS011;9537;45.594;9.294;2023-07-02T03:10:04;8.98;;;8.07;;
18818;SDS011;9537;45.594;9.294;2023-07-02T03:11:05;10.35;;;8.80;;
18818;SDS011;9537;45.594;9.294;2023-07-02T03:12:07;9.05;;;8.10;;
18818;SDS011;9537;45.594;9.294;2023-07-02T03:13:08;10.18;;;8.60;;
18818;SDS011;9537;45.594;9.294;2023-07-02T03:14:10;10.30;;;7.50;;
18818;SDS011;9537;45.594;9.294;2023-07-02T03:15:11;10.65;;;8.48;;
18818;SDS011;9537;45.594;9.294;2023-07-02T03:16:13;11.98;;;9.57;;
18818;SDS011;9537;45.594;9.294;2023-07-02T03:17:14;9.43;;;8.02;;
18818;SDS011;9537;45.594;9.294;2023-07-02T03:18:16;12.30;;;8.63;;
18818;SDS011;9537;45.594;9.294;2023-07-02T03:19:16;8.70;;;7.78;;
18818;SDS011;9537;45.594;9.294;2023-07-02T03:20:18;9.18;;;8.20;;
18818;SDS011;9537;45.594;9.294;2023-07-02T03:21:19;9.38;;;7.90;;
18818;SDS011;9537;45.594;9.294;2023-07-02T03:22:20;11.63;;;7.80;;
18818;SDS011;9537;45.594;9.294;2023-07-02T03:23:23;10.52;;;7.78;;
18818;SDS011;9537;45.594;9.294;2023-07-02T03:24:23;8.73;;;6.88;;
18818;SDS011;9537;45.594;9.294;2023-07-02T03:25:25;10.10;;;8.57;;
18818;SDS011;9537;45.594;9.294;2023-07-02T03:26:26;11.50;;;8.50;;
18818;SDS011;9537;45.594;9.294;2023-07-02T03:27:28;10.73;;;9.18;;
18818;SDS011;9537;45.594;9.294;2023-07-02T03:28:28;10.88;;;8.32;;
18818;SDS011;9537;45.594;9.294;2023-07-02T03:29:31;9.95;;;8.55;;
18818;SDS011;9537;45.594;9.294;2023-07-02T03:30:32;9.52;;;8.55;;
18818;SDS011;9537;45.594;9.294;2023-07-02T03:31:33;9.77;;;8.43;;
18818;SDS011;9537;45.594;9.294;2023-07-02T03:32:34;11.98;;;8.32;;
18818;SDS011;9537;45.594;9.294;2023-07-02T03:33:36;10.98;;;8.52;;
18818;SDS011;9537;45.594;9.294;2023-07-02T03:34:39;13.30;;;9.20;;
18818;SDS011;9537;45.594;9.294;2023-07-02T03:35:41;10.15;;;8.63;;
18818;SDS011;9537;45.594;9.294;2023-07-02T03:36:41;9.85;;;8.45;;
18818;SDS011;9537;45.594;9.294;2023-07-02T03:37:44;10.75;;;7.72;;
18818;SDS011;9537;45.594;9.294;2023-07-02T03:38:47;12.90;;;8.82;;
18818;SDS011;9537;45.594;9.294;2023-07-02T03:39:49;11.02;;;8.25;;
18818;SDS011;9537;45.594;9.294;2023-07-02T03:40:50;12.40;;;8.85;;
18818;SDS011;9537;45.594;9.294;2023-07-02T03:41:51;10.10;;;8.80;;
18818;SDS011;9537;45.594;9.294;2023-07-02T03:42:52;11.25;;;8.80;;
18818;SDS011;9537;45.594;9.294;2023-07-02T03:43:54;13.18;;;9.50;;
18818;SDS011;9537;45.594;9.294;2023-07-02T03:44:54;11.70;;;8.05;;
18818;SDS011;9537;45.594;9.294;2023-07-02T03:45:57;11.65;;;9.13;;
18818;SDS011;9537;45.594;9.294;2023-07-02T03:46:58;11.02;;;7.65;;
18818;SDS011;9537;45.594;9.294;2023-07-02T03:47:59;8.52;;;7.57;;
18818;SDS011;9537;45.594;9.294;2023-07-02T03:49:00;9.27;;;7.32;;
18818;SDS011;9537;45.594;9.294;2023-07-02T03:50:03;11.63;;;8.38;;
18818;SDS011;9537;45.594;9.294;2023-07-02T03:51:04;10.02;;;8.40;;
18818;SDS011;9537;45.594;9.294;2023-07-02T03:52:06;12.80;;;8.35;;
18818;SDS011;9537;45.594;9.294;2023-07-02T03:53:07;11.00;;;8.18;;
18818;SDS011;9537;45.594;9.294;2023-07-02T03:54:11;12.05;;;7.95;;
18818;SDS011;9537;45.594;9.294;2023-07-02T03:55:12;10.48;;;8.80;;
18818;SDS011;9537;45.594;9.294;2023-07-02T03:56:13;14.85;;;8.25;;
18818;SDS011;9537;45.594;9.294;2023-07-02T03:57:14;9.73;;;8.05;;
18818;SDS011;9537;45.594;9.294;2023-07-02T03:58:16;8.80;;;7.70;;
18818;SDS011;9537;45.594;9.294;2023-07-02T03:59:16;10.45;;;8.20;;
18818;SDS011;9537;45.594;9.294;2023-07-02T04:00:18;10.00;;;8.02;;
18818;SDS011;9537;45.594;9.294;2023-07-02T04:01:19;8.65;;;7.65;;
18818;SDS011;9537;45.594;9.294;2023-07-02T04:02:21;11.48;;;7.88;;
18818;SDS011;9537;45.594;9.294;2023-07-02T04:03:21;9.65;;;7.60;;
18818;SDS011;9537;45.594;9.294;2023-07-02T04:04:23;10.45;;;7.93;;
18818;SDS011;9537;45.594;9.294;2023-07-02T04:05:24;9.15;;;8.25;;
18818;SDS011;9537;45.594;9.294;2023-07-02T04:06:26;8.80;;;6.95;;
18818;SDS011;9537;45.594;9.294;2023-07-02T04:07:26;11.77;;;8.30;;
18818;SDS011;9537;45.594;9.294;2023-07-02T04:08:28;9.40;;;8.32;;
18818;SDS011;9537;45.594;9.294;2023-07-02T04:09:30;8.15;;;7.10;;
18818;SDS011;9537;45.594;9.294;2023-07-02T04:10:33;8.60;;;6.80;;
18818;SDS011;9537;45.594;9.294;2023-07-02T04:11:33;8.93;;;7.28;;
18818;SDS011;9537;45.594;9.294;2023-07-02T04:12:35;11.73;;;8.18;;
18818;SDS011;9537;45.594;9.294;2023-07-02T04:13:36;9.30;;;7.20;;
18818;SDS011;9537;45.594;9.294;2023-07-02T04:14:38;9.95;;;7.45;;
18818;SDS011;9537;45.594;9.294;2023-07-02T04:15:38;8.05;;;7.13;;
18818;SDS011;9537;45.594;9.294;2023-07-02T04:16:41;8.43;;;7.43;;
18818;SDS011;9537;45.594;9.294;2023-07-02T04:17:44;9.15;;;8.10;;
18818;SDS011;9537;45.594;9.294;2023-07-02T04:18:45;7.60;;;6.80;;
18818;SDS011;9537;45.594;9.294;2023-07-02T04:19:46;8.85;;;6.38;;
18818;SDS011;9537;45.594;9.294;2023-07-02T04:20:49;8.35;;;7.03;;
18818;SDS011;9537;45.594;9.294;2023-07-02T04:21:49;8.40;;;6.68;;
18818;SDS011;9537;45.594;9.294;2023-07-02T04:22:53;9.65;;;7.35;;
18818;SDS011;9537;45.594;9.294;2023-07-02T04:23:54;8.10;;;6.68;;
18818;SDS011;9537;45.594;9.294;2023-07-02T04:24:57;7.88;;;7.10;;
18818;SDS011;9537;45.594;9.294;2023-07-02T04:25:59;8.75;;;7.28;;
18818;SDS011;9537;45.594;9.294;2023-07-02T04:27:00;7.90;;;7.10;;
18818;SDS011;9537;45.594;9.294;2023-07-02T04:28:01;11.73;;;7.20;;
18818;SDS011;9537;45.594;9.294;2023-07-02T04:29:03;8.52;;;7.60;;
18818;SDS011;9537;45.594;9.294;2023-07-02T04:30:04;10.95;;;8.15;;
18818;SDS011;9537;45.594;9.294;2023-07-02T04:31:08;10.25;;;7.22;;
18818;SDS011;9537;45.594;9.294;2023-07-02T04:32:11;10.27;;;7.18;;
18818;SDS011;9537;45.594;9.294;2023-07-02T04:33:13;8.40;;;7.15;;
18818;SDS011;9537;45.594;9.294;2023-07-02T04:34:14;10.38;;;7.50;;
18818;SDS011;9537;45.594;9.294;2023-07-02T04:35:16;10.07;;;6.88;;
18818;SDS011;9537;45.594;9.294;2023-07-02T04:36:17;9.05;;;7.03;;
18818;SDS011;9537;45.594;9.294;2023-07-02T04:37:19;7.25;;;6.55;;
18818;SDS011;9537;45.594;9.294;2023-07-02T04:38:19;10.00;;;6.25;;
18818;SDS011;9537;45.594;9.294;2023-07-02T04:39:21;10.23;;;7.72;;
18818;SDS011;9537;45.594;9.294;2023-07-02T04:40:24;10.38;;;6.85;;
18818;SDS011;9537;45.594;9.294;2023-07-02T04:41:26;9.75;;;7.75;;
18818;SDS011;9537;45.594;9.294;2023-07-02T04:42:27;11.27;;;7.13;;
18818;SDS011;9537;45.594;9.294;2023-07-02T04:43:31;7.97;;;6.85;;
18818;SDS011;9537;45.594;9.294;2023-07-02T04:44:33;8.35;;;6.63;;
18818;SDS011;9537;45.594;9.294;2023-07-02T04:45:34;10.40;;;7.63;;
18818;SDS011;9537;45.594;9.294;2023-07-02T04:46:36;8.55;;;6.95;;
18818;SDS011;9537;45.594;9.294;2023-07-02T04:47:38;7.15;;;6.43;;
18818;SDS011;9537;45.594;9.294;2023-07-02T04:48:39;6.80;;;5.97;;
18818;SDS011;9537;45.594;9.294;2023-07-02T04:49:40;7.95;;;6.60;;
18818;SDS011;9537;45.594;9.294;2023-07-02T04:50:41;9.88;;;7.45;;
18818;SDS011;9537;45.594;9.294;2023-07-02T04:51:43;7.63;;;6.57;;
18818;SDS011;9537;45.594;9.294;2023-07-02T04:52:44;8.23;;;6.43;;
18818;SDS011;9537;45.594;9.294;2023-07-02T04:53:45;8.50;;;6.57;;
18818;SDS011;9537;45.594;9.294;2023-07-02T04:54:46;8.18;;;6.82;;
18818;SDS011;9537;45.594;9.294;2023-07-02T04:55:49;8.85;;;6.88;;
18818;SDS011;9537;45.594;9.294;2023-07-02T04:56:50;11.57;;;8.23;;
18818;SDS011;9537;45.594;9.294;2023-07-02T04:57:52;9.65;;;7.32;;
18818;SDS011;9537;45.594;9.294;2023-07-02T04:58:53;8.50;;;7.30;;
18818;SDS011;9537;45.594;9.294;2023-07-02T04:59:54;10.68;;;7.45;;
18818;SDS011;9537;45.594;9.294;2023-07-02T05:00:55;8.00;;;6.95;;
18818;SDS011;9537;45.594;9.294;2023-07-02T05:01:57;8.80;;;7.43;;
18818;SDS011;9537;45.594;9.294;2023-07-02T05:02:57;9.27;;;7.88;;
18818;SDS011;9537;45.594;9.294;2023-07-02T05:03:59;11.52;;;7.15;;
18818;SDS011;9537;45.594;9.294;2023-07-02T05:05:00;8.88;;;7.32;;
18818;SDS011;9537;45.594;9.294;2023-07-02T05:06:02;8.57;;;7.25;;
18818;SDS011;9537;45.594;9.294;2023-07-02T05:07:03;9.88;;;8.15;;
18818;SDS011;9537;45.594;9.294;2023-07-02T05:08:05;8.75;;;6.93;;
18818;SDS011;9537;45.594;9.294;2023-07-02T05:09:06;8.93;;;7.32;;
18818;SDS011;9537;45.594;9.294;2023-07-02T05:10:10;10.80;;;8.18;;
18818;SDS011;9537;45.594;9.294;2023-07-02T05:11:12;9.45;;;8.27;;
18818;SDS011;9537;45.594;9.294;2023-07-02T05:12:14;9.43;;;7.45;;
18818;SDS011;9537;45.594;9.294;2023-07-02T05:13:14;8.32;;;6.65;;
18818;SDS011;9537;45.594;9.294;2023-07-02T05:14:16;7.90;;;7.13;;
18818;SDS011;9537;45.594;9.294;2023-07-02T05:15:17;9.88;;;7.63;;
18818;SDS011;9537;45.594;9.294;2023-07-02T05:16:21;10.18;;;8.43;;
18818;SDS011;9537;45.594;9.294;2023-07-02T05:17:22;9.48;;;7.50;;
18818;SDS011;9537;45.594;9.294;2023-07-02T05:18:24;9.80;;;8.23;;
18818;SDS011;9537;45.594;9.294;2023-07-02T05:19:24;8.65;;;7.57;;
18818;SDS011;9537;45.594;9.294;2023-07-02T05:20:26;9.27;;;7.72;;
18818;SDS011;9537;45.594;9.294;2023-07-02T05:21:27;10.00;;;8.07;;
18818;SDS011;9537;45.594;9.294;2023-07-02T05:22:29;9.45;;;7.90;;
18818;SDS011;9537;45.594;9.294;2023-07-02T05:23:29;8.20;;;7.40;;
18818;SDS011;9537;45.594;9.294;2023-07-02T05:24:31;13.05;;;9.45;;
18818;SDS011;9537;45.594;9.294;2023-07-02T05:25:32;10.70;;;8.25;;
18818;SDS011;9537;45.594;9.294;2023-07-02T05:26:35;10.27;;;9.18;;
18818;SDS011;9537;45.594;9.294;2023-07-02T05:27:36;11.45;;;9.65;;
18818;SDS011;9537;45.594;9.294;2023-07-02T05:28:37;10.57;;;9.10;;
18818;SDS011;9537;45.594;9.294;2023-07-02T05:29:38;12.75;;;9.50;;
18818;SDS011;9537;45.594;9.294;2023-07-02T05:30:40;9.75;;;8.40;;
18818;SDS011;9537;45.594;9.294;2023-07-02T05:31:41;11.52;;;8.65;;
18818;SDS011;9537;45.594;9.294;2023-07-02T05:32:43;10.20;;;8.20;;
18818;SDS011;9537;45.594;9.294;2023-07-02T05:33:44;11.02;;;9.02;;
18818;SDS011;9537;45.594;9.294;2023-07-02T05:34:45;11.32;;;9.05;;
18818;SDS011;9537;45.594;9.294;2023-07-02T05:35:46;10.40;;;8.15;;
18818;SDS011;9537;45.594;9.294;2023-07-02T05:36:48;9.23;;;8.23;;
18818;SDS011;9537;45.594;9.294;2023-07-02T05:37:48;12.85;;;8.98;;
18818;SDS011;9537;45.594;9.294;2023-07-02T05:38:50;11.18;;;8.68;;
18818;SDS011;9537;45.594;9.294;2023-07-02T05:39:51;13.57;;;7.60;;
18818;SDS011;9537;45.594;9.294;2023-07-02T05:40:53;11.07;;;7.88;;
18818;SDS011;9537;45.594;9.294;2023-07-02T05:41:55;10.43;;;8.35;;
18818;SDS011;9537;45.594;9.294;2023-07-02T05:42:57;10.98;;;8.85;;
18818;SDS011;9537;45.594;9.294;2023-07-02T05:43:58;9.60;;;8.52;;
18818;SDS011;9537;45.594;9.294;2023-07-02T05:45:00;10.48;;;8.00;;
18818;SDS011;9537;45.594;9.294;2023-07-02T05:46:01;10.73;;;8.43;;
18818;SDS011;9537;45.594;9.294;2023-07-02T05:47:03;14.57;;;7.97;;
18818;SDS011;9537;45.594;9.294;2023-07-02T05:48:03;10.32;;;7.28;;
18818;SDS011;9537;45.594;9.294;2023-07-02T05:49:05;9.27;;;7.82;;
18818;SDS011;9537;45.594;9.294;2023-07-02T05:50:07;10.70;;;7.43;;
18818;SDS011;9537;45.594;9.294;2023-07-02T05:51:09;9.82;;;8.05;;
18818;SDS011;9537;45.594;9.294;2023-07-02T05:52:10;8.45;;;7.55;;
18818;SDS011;9537;45.594;9.294;2023-07-02T05:53:12;9.52;;;7.65;;
18818;SDS011;9537;45.594;9.294;2023-07-02T05:54:13;8.73;;;7.55;;
18818;SDS011;9537;45.594;9.294;2023-07-02T05:55:14;10.20;;;7.75;;
18818;SDS011;9537;45.594;9.294;2023-07-02T05:56:15;9.80;;;8.02;;
18818;SDS011;9537;45.594;9.294;2023-07-02T05:57:19;8.77;;;7.60;;
18818;SDS011;9537;45.594;9.294;2023-07-02T05:58:19;9.55;;;7.53;;
18818;SDS011;9537;45.594;9.294;2023-07-02T05:59:21;10.40;;;7.75;;
18818;SDS011;9537;45.594;9.294;2023-07-02T06:00:22;9.20;;;8.02;;
18818;SDS011;9537;45.594;9.294;2023-07-02T06:01:24;10.15;;;8.60;;
18818;SDS011;9537;45.594;9.294;2023-07-02T06:02:25;10.85;;;7.80;;
18818;SDS011;9537;45.594;9.294;2023-07-02T06:03:26;12.38;;;8.07;;
18818;SDS011;9537;45.594;9.294;2023-07-02T06:04:27;10.98;;;8.32;;
18818;SDS011;9537;45.594;9.294;2023-07-02T06:05:29;9.55;;;8.05;;
18818;SDS011;9537;45.594;9.294;2023-07-02T06:06:30;11.88;;;9.95;;
18818;SDS011;9537;45.594;9.294;2023-07-02T06:07:31;10.98;;;9.45;;
18818;SDS011;9537;45.594;9.294;2023-07-02T06:08:32;11.40;;;8.90;;
18818;SDS011;9537;45.594;9.294;2023-07-02T06:09:34;12.18;;;10.00;;
18818;SDS011;9537;45.594;9.294;2023-07-02T06:10:35;14.43;;;10.40;;
18818;SDS011;9537;45.594;9.294;2023-07-02T06:11:36;12.32;;;10.15;;
18818;SDS011;9537;45.594;9.294;2023-07-02T06:12:39;12.80;;;10.70;;
18818;SDS011;9537;45.594;9.294;2023-07-02T06:13:43;14.80;;;12.27;;
18818;SDS011;9537;45.594;9.294;2023-07-02T06:14:44;13.73;;;12.00;;
18818;SDS011;9537;45.594;9.294;2023-07-02T06:15:46;12.52;;;11.15;;